Terminal Aerodrome Forecast
Issued by NWS

Home | Current Version | Previous Version | Text Only | Print | Product List | Glossary On
Versions: 1 2 3 4 5 6 7 8 9 10 11 12 13 14 15 16 17 18 19 20 21 22 23
000
FTUS45 KBOU 231131
TAFAPA
TAF
KAPA 231131Z 2312/2412 02010KT P6SM FEW020 BKN060
      TEMPO 2314/2318 BKN020
     FM231800 07012KT P6SM SCT015 OVC035
      TEMPO 2319/2322 -SHRA BKN015
     FM232200 04010KT 5SM -RA BR SCT006 OVC012
     FM240300 06006KT 3SM -RA BR OVC006=

USA.gov is the U.S. government's official web portal to all federal, state and local government web resources and services.